createdAt,value
2018-12-06T00:01:01.387Z,100292.78
2018-12-06T00:03:44.258Z,100286.76
2018-12-06T00:06:28.127Z,100291.47
2018-12-06T00:09:09.916Z,100288.91
2018-12-06T00:11:52.643Z,100280.73
2018-12-06T00:14:35.499Z,100277.31
2018-12-06T00:17:18.424Z,100279.45
2018-12-06T00:20:00.918Z,100279.03
2018-12-06T00:22:43.527Z,100279.45
2018-12-06T00:25:27.144Z,100279.48
2018-12-06T00:28:10.200Z,100276.87
2018-12-06T00:30:51.731Z,100280.29
2018-12-06T00:33:34.447Z,100282.48
2018-12-06T00:36:16.585Z,100288.45
2018-12-06T00:38:59.255Z,100284.16
2018-12-06T00:41:41.721Z,100282.86
2018-12-06T00:44:23.879Z,100287.57
2018-12-06T00:47:06.337Z,100285.84
2018-12-06T00:49:49.252Z,100286.69
2018-12-06T00:52:31.323Z,100285.84
2018-12-06T00:55:13.896Z,100283.23
2018-12-06T00:57:57.047Z,100280.25
2018-12-06T01:00:38.895Z,100282.80
2018-12-06T01:03:20.444Z,100280.23
2018-12-06T01:06:03.128Z,100275.95
2018-12-06T01:08:45.334Z,100274.67
2018-12-06T01:11:27.107Z,100274.26
2018-12-06T01:14:09.545Z,100263.09
2018-12-06T01:16:51.745Z,100263.09
2018-12-06T01:19:34.806Z,100262.64
2018-12-06T01:22:17.042Z,100260.92
2018-12-06T01:24:59.176Z,100261.78
2018-12-06T01:27:41.848Z,100260.92
2018-12-06T01:30:24.327Z,100264.80
2018-12-06T01:33:06.460Z,100260.92
2018-12-06T01:35:48.787Z,100263.93
2018-12-06T01:38:32.536Z,100254.52
2018-12-06T01:41:14.556Z,100253.64
2018-12-06T01:43:57.163Z,100245.93
2018-12-06T01:46:39.411Z,100244.63
2018-12-06T01:49:21.875Z,100243.80
2018-12-06T01:52:04.337Z,100241.20
2018-12-06T01:54:47.072Z,100236.05
2018-12-06T01:57:29.203Z,100225.75
2018-12-06T02:00:12.097Z,100221.05
2018-12-06T02:02:54.343Z,100216.33
2018-12-06T02:05:36.418Z,100212.91
2018-12-06T02:08:18.892Z,100208.64
2018-12-06T02:11:01.236Z,100213.35
2018-12-06T02:13:42.936Z,100207.77
2018-12-06T02:16:25.446Z,100206.06
2018-12-06T02:19:08.209Z,100202.64
2018-12-06T02:21:50.356Z,100219.36
2018-12-06T02:24:32.874Z,100215.94
2018-12-06T02:27:16.169Z,100219.38
2018-12-06T02:29:57.712Z,100215.06
2018-12-06T02:32:41.832Z,100210.80
2018-12-06T02:35:23.726Z,100205.64
2018-12-06T02:38:06.184Z,100201.77
2018-12-06T02:40:49.784Z,100202.64
2018-12-06T02:43:32.174Z,100203.04
2018-12-06T02:46:13.765Z,100201.76
2018-12-06T02:48:56.226Z,100200.05
2018-12-06T02:51:38.548Z,100204.35
2018-12-06T02:54:20.972Z,100201.78
2018-12-06T02:57:04.027Z,100200.48
2018-12-06T02:59:45.844Z,100201.78
2018-12-06T03:02:28.502Z,100210.81
2018-12-06T03:05:11.384Z,100206.94
2018-12-06T03:07:53.263Z,100200.09
2018-12-06T03:10:35.656Z,100205.23
2018-12-06T03:13:18.444Z,100196.22
2018-12-06T03:16:00.507Z,100195.33
2018-12-06T03:18:42.615Z,100189.33
2018-12-06T03:21:25.143Z,100190.19
2018-12-06T03:24:07.207Z,100188.05
2018-12-06T03:26:49.845Z,100189.75
2018-12-06T03:29:32.202Z,100190.64
2018-12-06T03:32:14.705Z,100192.36
2018-12-06T03:34:57.002Z,100202.22
2018-12-06T03:37:38.622Z,100203.08
2018-12-06T03:40:21.075Z,100209.09
2018-12-06T03:43:03.516Z,100207.80
2018-12-06T03:45:45.901Z,100210.81
2018-12-06T03:48:28.475Z,100209.11
2018-12-06T03:51:10.830Z,100206.52
2018-12-06T03:53:53.661Z,100203.95
2018-12-06T03:56:35.679Z,100203.09
2018-12-06T03:59:18.033Z,100207.39
2018-12-06T04:01:59.670Z,100202.21
2018-12-06T04:04:42.420Z,100203.53
2018-12-06T04:07:24.408Z,100199.66
2018-12-06T04:10:07.604Z,100203.92
2018-12-06T04:12:49.468Z,100193.65
2018-12-06T04:15:32.086Z,100194.51
2018-12-06T04:18:14.291Z,100186.34
2018-12-06T04:20:56.721Z,100183.33
2018-12-06T04:23:39.163Z,100181.62
2018-12-06T04:26:21.716Z,100189.78
2018-12-06T04:29:04.132Z,100179.91
2018-12-06T04:31:46.468Z,100180.76
2018-12-06T04:34:27.990Z,100183.77
2018-12-06T04:37:10.427Z,100188.48
2018-12-06T04:39:52.815Z,100194.50
2018-12-06T04:42:35.374Z,100194.94
2018-12-06T04:45:17.800Z,100199.20
2018-12-06T04:48:00.301Z,100177.31
2018-12-06T04:50:42.724Z,100182.47
2018-12-06T04:53:25.219Z,100180.76
2018-12-06T04:56:07.491Z,100181.19
2018-12-06T04:58:50.333Z,100181.62
2018-12-06T05:01:32.415Z,100189.75
2018-12-06T05:04:14.135Z,100191.47
2018-12-06T05:06:56.874Z,100194.06
2018-12-06T05:09:38.754Z,100189.33
2018-12-06T05:12:21.191Z,100200.54
2018-12-06T05:15:02.787Z,100208.28
2018-12-06T05:17:45.112Z,100218.12
2018-12-06T05:20:26.703Z,100224.58
2018-12-06T05:23:09.183Z,100228.44
2018-12-06T05:25:52.597Z,100226.72
2018-12-06T05:28:34.172Z,100225.43
2018-12-06T05:31:16.723Z,100230.59
2018-12-06T05:33:58.970Z,100235.32
2018-12-06T05:36:41.364Z,100236.59
2018-12-06T05:39:23.739Z,100234.03
2018-12-06T05:42:42.601Z,100233.60
2018-12-06T05:45:25.843Z,100241.34
2018-12-06T05:48:08.976Z,100237.03
2018-12-06T05:50:51.616Z,100239.61
2018-12-06T05:53:34.821Z,100239.20
2018-12-06T05:56:18.749Z,100253.38
2018-12-06T05:59:01.360Z,100259.78
2018-12-06T06:01:43.447Z,100261.06
2018-12-06T06:04:26.800Z,100267.07
2018-12-06T06:07:10.154Z,100267.50
2018-12-06T06:09:53.949Z,100267.91
2018-12-06T06:12:37.818Z,100282.11
2018-12-06T06:15:19.911Z,100278.24
2018-12-06T06:18:04.563Z,100276.08
2018-12-06T06:20:47.125Z,100268.36
2018-12-06T06:23:29.778Z,100267.91
2018-12-06T06:26:12.759Z,100271.33
2018-12-06T06:28:54.798Z,100271.34
2018-12-06T06:31:37.985Z,100270.05
2018-12-06T06:34:47.151Z,100276.91
2018-12-06T06:41:06.530Z,100248.14
2018-12-06T06:43:48.564Z,100254.16
2018-12-06T06:46:31.996Z,100269.61
2018-12-06T06:49:15.254Z,100267.05
2018-12-06T06:51:57.514Z,100258.45
2018-12-06T06:54:41.217Z,100264.48
2018-12-06T06:57:28.031Z,100276.08
2018-12-06T07:00:16.183Z,100285.11
2018-12-06T07:03:00.030Z,100293.69
2018-12-06T07:05:44.375Z,100305.30
2018-12-06T07:08:27.420Z,100309.59
2018-12-06T07:11:10.263Z,100317.75
2018-12-06T07:13:54.247Z,100323.34
2018-12-06T07:16:36.942Z,100324.63
2018-12-06T07:19:19.247Z,100325.97
2018-12-06T07:22:02.024Z,100327.64
2018-12-06T07:24:44.076Z,100319.97
2018-12-06T07:27:27.963Z,100326.84
2018-12-06T07:30:12.503Z,100335.84
2018-12-06T07:32:55.903Z,100338.87
2018-12-06T07:35:42.179Z,100331.14
2018-12-06T07:38:25.240Z,100332.84
2018-12-06T07:41:07.567Z,100326.81
2018-12-06T07:43:49.919Z,100327.69
2018-12-06T07:46:35.787Z,100338.45
2018-12-06T07:49:18.179Z,100341.45
2018-12-06T07:52:00.836Z,100336.30
2018-12-06T07:54:46.372Z,100343.62
2018-12-06T07:57:30.292Z,100353.91
2018-12-06T08:00:14.875Z,100358.20
2018-12-06T08:02:59.190Z,100372.39
2018-12-06T08:05:43.427Z,100378.41
2018-12-06T08:08:25.336Z,100378.84
2018-12-06T08:11:08.144Z,100374.98
2018-12-06T08:13:51.231Z,100376.26
2018-12-06T08:16:37.200Z,100375.42
2018-12-06T08:19:21.165Z,100377.13
2018-12-06T08:22:04.193Z,100378.00
2018-12-06T08:24:49.058Z,100373.27
2018-12-06T08:27:42.424Z,100375.00
2018-12-06T08:30:29.563Z,100371.99
2018-12-06T08:33:12.238Z,100367.23
2018-12-06T08:35:57.103Z,100372.41
2018-12-06T08:38:39.728Z,100371.12
2018-12-06T08:41:24.743Z,100375.86
2018-12-06T08:44:08.047Z,100370.70
2018-12-06T08:46:50.299Z,100357.77
2018-12-06T08:49:32.883Z,100354.79
2018-12-06T08:52:15.705Z,100356.91
2018-12-06T08:54:58.602Z,100360.34
2018-12-06T08:57:42.683Z,100359.92
2018-12-06T09:00:25.591Z,100363.80
2018-12-06T09:03:09.538Z,100356.05
2018-12-06T09:05:53.559Z,100367.23
2018-12-06T09:08:36.043Z,100371.11
2018-12-06T09:11:18.925Z,100372.37
2018-12-06T09:14:01.828Z,100376.67
2018-12-06T09:16:43.787Z,100387.00
2018-12-06T09:19:29.259Z,100386.13
2018-12-06T09:22:12.182Z,100386.56
2018-12-06T09:24:55.922Z,100394.73
2018-12-06T09:27:41.626Z,100400.73
2018-12-06T09:30:23.716Z,100398.61
2018-12-06T09:33:07.997Z,100399.87
2018-12-06T09:35:53.791Z,100410.63
2018-12-06T09:38:36.592Z,100407.19
2018-12-06T09:41:19.623Z,100403.31
2018-12-06T09:44:03.304Z,100393.84
2018-12-06T09:46:46.945Z,100389.11
2018-12-06T09:49:30.086Z,100393.41
2018-12-06T09:52:12.231Z,100384.37
2018-12-06T09:54:55.814Z,100381.74
2018-12-06T09:57:39.599Z,100392.94
2018-12-06T10:00:22.652Z,100402.41
2018-12-06T10:03:05.443Z,100389.92
2018-12-06T10:05:47.547Z,100375.28
2018-12-06T10:08:30.971Z,100368.39
2018-12-06T10:11:15.039Z,100370.05
2018-12-06T10:13:59.190Z,100375.66
2018-12-06T10:16:48.043Z,100373.07
2018-12-06T10:19:30.632Z,100369.59
2018-12-06T10:22:14.208Z,100372.63
2018-12-06T10:24:56.866Z,100369.62
2018-12-06T10:27:41.752Z,100368.32
2018-12-06T10:30:24.674Z,100374.78
2018-12-06T10:33:08.691Z,100373.05
2018-12-06T10:35:51.589Z,100374.32
2018-12-06T10:38:34.071Z,100375.61
2018-12-06T10:41:16.947Z,100377.33
2018-12-06T10:43:59.177Z,100382.46
2018-12-06T10:46:43.004Z,100380.73
2018-12-06T10:49:26.899Z,100376.43
2018-12-06T10:52:09.153Z,100372.11
2018-12-06T10:54:54.190Z,100367.36
2018-12-06T10:57:38.304Z,100377.25
2018-12-06T11:00:27.595Z,100380.25
2018-12-06T11:03:14.246Z,100389.76
2018-12-06T11:06:07.299Z,100391.05
2018-12-06T11:08:51.736Z,100391.84
2018-12-06T11:11:35.220Z,100393.14
2018-12-06T11:14:18.153Z,100390.99
2018-12-06T11:17:00.967Z,100384.09
2018-12-06T11:19:45.816Z,100392.69
2018-12-06T11:22:28.718Z,100391.75
2018-12-06T11:25:11.260Z,100391.73
2018-12-06T11:27:53.526Z,100388.31
2018-12-06T11:30:37.658Z,100390.89
2018-12-06T11:33:19.573Z,100385.73
2018-12-06T11:36:05.013Z,100379.69
2018-12-06T11:38:47.991Z,100376.66
2018-12-06T11:41:30.506Z,100383.09
2018-12-06T11:44:15.245Z,100378.34
2018-12-06T11:46:58.693Z,100381.77
2018-12-06T11:49:41.191Z,100382.23
2018-12-06T11:52:23.987Z,100388.67
2018-12-06T11:55:07.607Z,100396.44
2018-12-06T11:57:50.836Z,100400.30
2018-12-06T12:00:32.843Z,100401.12
2018-12-06T12:03:16.258Z,100401.52
2018-12-06T12:05:59.234Z,100401.08
2018-12-06T12:08:41.321Z,100406.69
2018-12-06T12:11:26.561Z,100404.50
2018-12-06T12:14:09.570Z,100401.52
2018-12-06T12:16:53.047Z,100402.77
2018-12-06T12:19:35.928Z,100402.34
2018-12-06T12:22:17.996Z,100405.38
2018-12-06T12:25:01.667Z,100405.83
2018-12-06T12:27:45.987Z,100402.38
2018-12-06T12:30:35.958Z,100388.99
2018-12-06T12:33:26.622Z,100384.25
2018-12-06T12:36:10.548Z,100387.28
2018-12-06T12:38:52.417Z,100383.84
2018-12-06T12:41:35.579Z,100385.98
2018-12-06T12:44:19.559Z,100389.88
2018-12-06T12:47:02.737Z,100389.87
2018-12-06T12:49:46.179Z,100396.31
2018-12-06T12:52:28.963Z,100392.00
2018-12-06T12:55:12.696Z,100390.28
2018-12-06T12:57:56.992Z,100396.28
2018-12-06T13:00:39.400Z,100396.28
2018-12-06T13:03:22.446Z,100393.21
2018-12-06T13:06:06.364Z,100394.05
2018-12-06T13:08:48.770Z,100405.66
2018-12-06T13:11:33.435Z,100410.36
2018-12-06T13:14:17.271Z,100413.74
2018-12-06T13:16:59.896Z,100413.39
2018-12-06T13:19:42.396Z,100408.12
2018-12-06T13:22:25.334Z,100403.79
2018-12-06T13:25:08.367Z,100401.21
2018-12-06T13:27:51.788Z,100392.56
2018-12-06T13:30:34.405Z,100392.14
2018-12-06T13:33:20.086Z,100382.59
2018-12-06T13:36:02.018Z,100383.83
2018-12-06T13:38:47.161Z,100391.12
2018-12-06T13:41:29.972Z,100385.12
2018-12-06T13:44:14.540Z,100383.35
2018-12-06T13:46:58.979Z,100384.59
2018-12-06T13:49:42.013Z,100384.67
2018-12-06T13:52:24.575Z,100379.91
2018-12-06T13:55:08.373Z,100376.98
2018-12-06T13:57:52.230Z,100385.55
2018-12-06T14:00:36.147Z,100394.18
2018-12-06T14:03:19.557Z,100395.97
2018-12-06T14:06:04.109Z,100404.95
2018-12-06T14:08:47.436Z,100399.86
2018-12-06T14:11:32.721Z,100399.00
2018-12-06T14:14:15.610Z,100408.55
2018-12-06T14:16:58.963Z,100399.92
2018-12-06T14:19:40.992Z,100389.16
2018-12-06T14:22:25.119Z,100398.19
2018-12-06T14:25:08.563Z,100400.32
2018-12-06T14:27:52.404Z,100398.62
2018-12-06T14:30:37.895Z,100399.91
2018-12-06T14:33:36.829Z,100397.37
2018-12-06T14:36:20.397Z,100400.81
2018-12-06T14:39:06.313Z,100412.47
2018-12-06T14:41:49.094Z,100408.57
2018-12-06T14:44:32.963Z,100406.42
2018-12-06T14:47:15.704Z,100407.30
2018-12-06T14:49:59.620Z,100405.61
2018-12-06T14:52:43.183Z,100413.77
2018-12-06T14:55:26.558Z,100414.69
2018-12-06T14:58:11.544Z,100412.48
2018-12-06T15:00:57.631Z,100411.17
2018-12-06T15:03:42.215Z,100420.22
2018-12-06T15:06:28.078Z,100422.83
2018-12-06T15:09:14.121Z,100419.86
2018-12-06T15:11:58.731Z,100412.09
2018-12-06T15:14:42.331Z,100409.93
2018-12-06T15:17:26.675Z,100411.17
2018-12-06T15:20:12.903Z,100405.57
2018-12-06T15:22:57.000Z,100412.04
2018-12-06T15:25:42.149Z,100410.79
2018-12-06T15:28:26.618Z,100409.93
2018-12-06T15:31:10.013Z,100406.91
2018-12-06T15:33:56.044Z,100408.64
2018-12-06T15:36:40.461Z,100406.47
2018-12-06T15:39:28.229Z,100414.61
2018-12-06T15:42:12.824Z,100430.56
2018-12-06T15:45:19.275Z,100429.72
2018-12-06T15:48:04.295Z,100429.72
2018-12-06T15:50:48.637Z,100427.98
2018-12-06T15:53:35.125Z,100414.61
2018-12-06T15:56:18.889Z,100413.75
2018-12-06T15:59:03.830Z,100407.23
2018-12-06T16:01:47.562Z,100404.19
2018-12-06T16:04:32.075Z,100408.55
2018-12-06T16:07:15.605Z,100403.36
2018-12-06T16:09:59.597Z,100397.73
2018-12-06T16:12:43.399Z,100400.32
2018-12-06T16:15:27.629Z,100392.08
2018-12-06T16:18:13.083Z,100392.11
2018-12-06T16:21:01.396Z,100392.52
2018-12-06T16:23:44.277Z,100388.61
2018-12-06T16:26:29.239Z,100367.05
2018-12-06T16:29:12.522Z,100366.60
2018-12-06T16:31:56.617Z,100361.88
2018-12-06T16:34:40.047Z,100357.03
2018-12-06T16:37:26.121Z,100367.81
2018-12-06T16:40:08.981Z,100368.67
2018-12-06T16:42:52.640Z,100367.78
2018-12-06T16:45:37.654Z,100369.07
2018-12-06T16:48:23.985Z,100363.88
2018-12-06T16:51:08.959Z,100375.94
2018-12-06T16:53:55.488Z,100378.09
2018-12-06T16:56:40.940Z,100377.22
2018-12-06T16:59:24.732Z,100380.58
2018-12-06T17:02:07.204Z,100378.92
2018-12-06T17:04:50.941Z,100383.17
2018-12-06T17:07:34.806Z,100385.77
2018-12-06T17:10:22.759Z,100385.33
2018-12-06T17:13:06.599Z,100392.22
2018-12-06T17:15:51.749Z,100391.36
2018-12-06T17:18:35.409Z,100389.59
2018-12-06T17:21:19.044Z,100392.63
2018-12-06T17:24:02.695Z,100383.14
2018-12-06T17:26:53.012Z,100381.39
2018-12-06T17:29:42.328Z,100380.02
2018-12-06T17:32:25.806Z,100374.41
2018-12-06T17:35:10.477Z,100367.99
2018-12-06T17:37:55.848Z,100365.80
2018-12-06T17:40:40.110Z,100374.86
2018-12-06T17:43:23.928Z,100362.73
2018-12-06T17:46:08.903Z,100360.93
2018-12-06T17:48:52.822Z,100360.57
2018-12-06T17:51:37.094Z,100368.73
2018-12-06T17:54:24.236Z,100359.29
2018-12-06T17:57:07.436Z,100363.17
2018-12-06T17:59:50.736Z,100354.14
2018-12-06T18:02:36.557Z,100360.20
2018-12-06T18:05:20.297Z,100352.00
2018-12-06T18:08:05.484Z,100358.46
2018-12-06T18:10:50.187Z,100355.07
2018-12-06T18:13:35.148Z,100362.00
2018-12-06T18:16:19.706Z,100351.23
2018-12-06T18:19:03.855Z,100355.13
2018-12-06T18:21:47.115Z,100360.28
2018-12-06T18:24:32.366Z,100361.55
2018-12-06T18:27:16.987Z,100365.89
2018-12-06T18:30:00.895Z,100367.59
2018-12-06T18:32:45.113Z,100352.93
2018-12-06T18:35:29.869Z,100354.64
2018-12-06T18:38:14.459Z,100354.67
2018-12-06T18:40:57.427Z,100346.92
2018-12-06T18:43:43.389Z,100350.79
2018-12-06T18:46:27.977Z,100352.07
2018-12-06T18:49:13.341Z,100350.80
2018-12-06T18:51:57.872Z,100345.58
2018-12-06T18:54:41.659Z,100347.79
2018-12-06T18:57:24.371Z,100353.36
2018-12-06T19:00:11.725Z,100363.27
2018-12-06T19:02:56.436Z,100359.83
2018-12-06T19:05:39.974Z,100361.52
2018-12-06T19:08:26.938Z,100364.53
2018-12-06T19:11:11.716Z,100367.53
2018-12-06T19:13:55.258Z,100360.66
2018-12-06T19:16:38.917Z,100355.48
2018-12-06T19:19:24.129Z,100350.25
2018-12-06T19:22:08.932Z,100345.92
2018-12-06T19:24:53.432Z,100350.66
2018-12-06T19:27:39.609Z,100348.53
2018-12-06T19:30:23.852Z,100342.89
2018-12-06T19:33:08.606Z,100350.25
2018-12-06T19:35:52.803Z,100344.20
2018-12-06T19:38:37.051Z,100345.07
2018-12-06T19:41:20.837Z,100342.05
2018-12-06T19:44:04.486Z,100343.34
2018-12-06T19:46:50.154Z,100340.77
2018-12-06T19:49:34.915Z,100337.70
2018-12-06T19:52:19.097Z,100328.64
2018-12-06T19:55:02.214Z,100326.92
2018-12-06T19:57:46.874Z,100318.28
2018-12-06T20:00:31.028Z,100326.09
2018-12-06T20:03:14.582Z,100325.64
2018-12-06T20:05:59.713Z,100314.43
2018-12-06T20:08:45.645Z,100307.97
2018-12-06T20:11:30.248Z,100312.73
2018-12-06T20:14:15.593Z,100308.86
2018-12-06T20:17:02.716Z,100311.89
2018-12-06T20:19:46.694Z,100307.59
2018-12-06T20:22:33.204Z,100305.00
2018-12-06T20:25:16.794Z,100306.69
2018-12-06T20:28:00.917Z,100315.78
2018-12-06T20:30:45.372Z,100309.75
2018-12-06T20:33:28.820Z,100315.34
2018-12-06T20:36:14.225Z,100307.97
2018-12-06T20:38:57.099Z,100302.37
2018-12-06T20:41:45.161Z,100286.77
2018-12-06T20:44:28.672Z,100295.88
2018-12-06T20:47:16.897Z,100289.82
2018-12-06T20:50:00.072Z,100283.75
2018-12-06T20:52:43.598Z,100283.75
2018-12-06T20:55:27.909Z,100277.28
2018-12-06T20:58:15.223Z,100274.24
2018-12-06T21:01:00.487Z,100278.13
2018-12-06T21:03:46.052Z,100278.16
2018-12-06T21:06:30.279Z,100267.80
2018-12-06T21:09:13.841Z,100258.28
2018-12-06T21:11:55.812Z,100250.96
2018-12-06T21:14:39.043Z,100256.53
2018-12-06T21:17:24.558Z,100255.27
2018-12-06T21:20:09.439Z,100262.97
2018-12-06T21:22:52.863Z,100262.56
2018-12-06T21:25:35.991Z,100272.52
2018-12-06T21:28:19.112Z,100269.39
2018-12-06T21:31:03.410Z,100275.06
2018-12-06T21:33:47.249Z,100275.00
2018-12-06T21:36:31.197Z,100267.21
2018-12-06T21:39:14.370Z,100273.66
2018-12-06T21:41:57.265Z,100273.69
2018-12-06T21:44:39.919Z,100266.75
2018-12-06T21:47:29.590Z,100262.83
2018-12-06T21:50:16.866Z,100263.66
2018-12-06T21:53:04.791Z,100257.21
2018-12-06T21:55:56.165Z,100260.16
2018-12-06T21:58:50.459Z,100243.74
2018-12-06T22:01:35.212Z,100233.83
2018-12-06T22:04:17.475Z,100242.83
2018-12-06T22:07:01.842Z,100246.33
2018-12-06T22:09:45.478Z,100238.92
2018-12-06T22:12:27.851Z,100244.97
2018-12-06T22:15:11.994Z,100238.45
2018-12-06T22:17:55.270Z,100242.30
2018-12-06T22:20:37.705Z,100236.23
2018-12-06T22:23:21.623Z,100238.83
2018-12-06T22:26:04.447Z,100233.22
2018-12-06T22:28:47.824Z,100233.22
2018-12-06T22:31:32.889Z,100221.95
2018-12-06T22:34:15.324Z,100226.74
2018-12-06T22:36:58.612Z,100234.48
2018-12-06T22:39:43.143Z,100228.89
2018-12-06T22:42:26.723Z,100231.89
2018-12-06T22:45:25.717Z,100231.91
2018-12-06T22:48:09.336Z,100232.78
2018-12-06T22:50:51.924Z,100229.75
2018-12-06T22:53:35.067Z,100242.27
2018-12-06T22:56:17.899Z,100238.48
2018-12-06T22:59:00.202Z,100234.23
2018-12-06T23:01:44.215Z,100235.96
2018-12-06T23:04:26.503Z,100233.37
2018-12-06T23:07:09.747Z,100237.30
2018-12-06T23:09:53.489Z,100240.30
2018-12-06T23:12:35.514Z,100236.48
2018-12-06T23:15:20.082Z,100243.05
2018-12-06T23:18:03.273Z,100233.70
2018-12-06T23:20:45.775Z,100236.34
2018-12-06T23:23:28.020Z,100222.12
2018-12-06T23:26:10.795Z,100223.00
2018-12-06T23:28:53.158Z,100225.67
2018-12-06T23:31:36.810Z,100235.61
2018-12-06T23:34:19.147Z,100221.41
2018-12-06T23:37:01.903Z,100228.77
2018-12-06T23:39:44.181Z,100225.79
2018-12-06T23:42:27.667Z,100226.23
2018-12-06T23:45:12.155Z,100223.64
2018-12-06T23:47:56.041Z,100217.20
2018-12-06T23:50:38.431Z,100219.77
2018-12-06T23:53:20.749Z,100215.06
2018-12-06T23:56:03.569Z,100220.69
2018-12-06T23:58:46.172Z,100215.03
